createdAt,value
2022-10-26T00:01:24.202Z,4.90
2022-10-26T00:02:57.656Z,5.50
2022-10-26T00:04:30.346Z,5.10
2022-10-26T00:06:10.609Z,5.37
2022-10-26T00:07:43.315Z,5.23
2022-10-26T00:09:16.038Z,5.37
2022-10-26T00:10:48.753Z,5.57
2022-10-26T00:12:21.469Z,5.27
2022-10-26T00:13:54.189Z,5.10
2022-10-26T00:15:26.033Z,5.27
2022-10-26T00:16:58.841Z,5.23
2022-10-26T00:18:31.561Z,6.00
2022-10-26T00:20:03.712Z,5.37
2022-10-26T00:21:37.767Z,6.27
2022-10-26T00:23:10.493Z,5.60
2022-10-26T00:24:43.248Z,5.60
2022-10-26T00:26:15.948Z,6.03
2022-10-26T00:27:48.957Z,5.77
2022-10-26T00:29:21.881Z,5.60
2022-10-26T00:30:53.691Z,5.90
2022-10-26T00:32:26.503Z,5.43
2022-10-26T00:33:59.676Z,5.43
2022-10-26T00:35:45.150Z,6.07
2022-10-26T00:37:19.925Z,5.63
2022-10-26T00:38:53.892Z,5.53
2022-10-26T00:40:28.741Z,5.83
2022-10-26T00:42:01.495Z,5.10
2022-10-26T00:43:36.365Z,5.03
2022-10-26T00:45:21.279Z,5.40
2022-10-26T00:46:54.222Z,5.23
2022-10-26T00:48:28.592Z,5.20
2022-10-26T00:50:04.152Z,4.93
2022-10-26T00:51:41.156Z,4.63
2022-10-26T00:53:15.670Z,5.00
2022-10-26T00:54:48.436Z,5.33
2022-10-26T00:56:21.671Z,5.27
2022-10-26T00:57:55.869Z,5.97
2022-10-26T00:59:28.607Z,5.63
2022-10-26T01:01:01.330Z,4.80
2022-10-26T01:02:34.091Z,5.20
2022-10-26T01:04:06.898Z,5.93
2022-10-26T01:05:43.010Z,5.80
2022-10-26T01:07:16.251Z,5.47
2022-10-26T01:08:50.960Z,4.80
2022-10-26T01:10:24.712Z,5.60
2022-10-26T01:11:56.473Z,5.23
2022-10-26T01:13:32.363Z,5.37
2022-10-26T01:15:06.019Z,5.03
2022-10-26T01:16:59.519Z,4.87
2022-10-26T01:18:41.715Z,4.73
2022-10-26T01:20:53.530Z,5.23
2022-10-26T01:22:30.099Z,5.43
2022-10-26T01:24:22.457Z,6.40
2022-10-26T01:26:25.302Z,6.30
2022-10-26T01:27:58.633Z,5.43
2022-10-26T01:30:03.320Z,5.87
2022-10-26T01:31:43.499Z,5.40
2022-10-26T01:33:34.297Z,5.97
2022-10-26T01:35:10.059Z,6.23
2022-10-26T01:36:47.262Z,5.93
2022-10-26T01:38:26.705Z,5.63
2022-10-26T01:40:07.287Z,5.43
2022-10-26T01:41:47.111Z,5.83
2022-10-26T01:43:20.944Z,5.80
2022-10-26T01:44:58.559Z,5.70
2022-10-26T01:46:40.578Z,6.03
2022-10-26T01:48:17.100Z,5.87
2022-10-26T01:49:54.673Z,5.20
2022-10-26T01:51:28.476Z,5.27
2022-10-26T01:53:01.195Z,5.60
2022-10-26T01:56:19.221Z,5.07
2022-10-26T01:57:52.767Z,5.23
2022-10-26T01:59:48.453Z,5.87
2022-10-26T02:01:34.460Z,5.33
2022-10-26T02:03:15.533Z,5.50
2022-10-26T02:05:06.271Z,5.43
2022-10-26T02:06:46.768Z,5.00
2022-10-26T02:08:28.349Z,5.00
2022-10-26T02:10:08.849Z,5.00
2022-10-26T02:11:44.321Z,4.93
2022-10-26T02:13:21.917Z,4.43
2022-10-26T02:15:04.416Z,4.97
2022-10-26T02:16:42.981Z,4.57
2022-10-26T02:18:28.484Z,4.70
2022-10-26T02:20:04.808Z,4.90
2022-10-26T02:21:40.065Z,4.40
2022-10-26T02:23:13.527Z,4.50
2022-10-26T02:24:48.668Z,4.30
2022-10-26T02:26:24.774Z,5.00
2022-10-26T02:28:02.607Z,5.97
2022-10-26T02:29:36.734Z,5.40
2022-10-26T02:31:11.908Z,5.67
2022-10-26T02:32:49.315Z,6.43
2022-10-26T02:34:28.525Z,6.60
2022-10-26T02:36:04.090Z,5.93
2022-10-26T02:37:39.452Z,6.40
2022-10-26T02:39:15.485Z,6.30
2022-10-26T02:40:50.573Z,6.20
2022-10-26T02:42:25.627Z,6.67
2022-10-26T02:44:03.400Z,5.77
2022-10-26T02:45:39.628Z,6.00
2022-10-26T02:47:12.925Z,7.00
2022-10-26T02:48:45.950Z,6.37
2022-10-26T02:50:24.986Z,6.07
2022-10-26T02:52:04.361Z,6.17
2022-10-26T02:53:43.176Z,6.17
2022-10-26T02:55:20.921Z,5.97
2022-10-26T02:56:58.730Z,6.10
2022-10-26T02:58:36.942Z,6.00
2022-10-26T03:01:51.228Z,6.10
2022-10-26T03:03:24.334Z,6.53
2022-10-26T03:04:56.946Z,6.13
2022-10-26T03:06:31.083Z,6.30
2022-10-26T03:08:04.277Z,6.10
2022-10-26T03:09:37.002Z,6.30
2022-10-26T03:11:10.025Z,6.57
2022-10-26T03:12:42.775Z,6.30
2022-10-26T03:14:15.605Z,6.10
2022-10-26T03:15:48.314Z,5.77
2022-10-26T03:17:21.059Z,5.77
2022-10-26T03:18:53.776Z,6.00
2022-10-26T03:20:26.584Z,5.63
2022-10-26T03:22:00.641Z,5.33
2022-10-26T03:23:33.402Z,5.40
2022-10-26T03:26:44.977Z,5.63
2022-10-26T03:28:17.698Z,5.53
2022-10-26T03:29:50.417Z,5.10
2022-10-26T03:31:23.141Z,4.37
2022-10-26T03:32:56.000Z,5.67
2022-10-26T03:34:28.728Z,5.43
2022-10-26T03:36:00.542Z,5.77
2022-10-26T03:37:34.613Z,5.10
2022-10-26T03:39:07.320Z,5.80
2022-10-26T03:40:40.028Z,5.67
2022-10-26T03:42:11.809Z,5.50
2022-10-26T03:43:44.519Z,5.47
2022-10-26T03:45:17.461Z,5.80
2022-10-26T03:46:50.351Z,5.90
2022-10-26T03:48:23.086Z,5.73
2022-10-26T03:49:55.853Z,5.47
2022-10-26T03:51:29.017Z,5.67
2022-10-26T03:53:03.098Z,5.80
2022-10-26T03:54:35.852Z,6.17
2022-10-26T03:56:09.030Z,6.43
2022-10-26T03:57:42.736Z,6.20
2022-10-26T03:59:15.449Z,6.33
2022-10-26T04:00:48.762Z,6.17
2022-10-26T04:02:21.482Z,6.33
2022-10-26T04:03:54.362Z,6.33
2022-10-26T04:05:28.367Z,6.00
2022-10-26T04:07:01.167Z,6.67
2022-10-26T04:08:35.215Z,5.60
2022-10-26T04:10:08.900Z,5.40
2022-10-26T04:11:40.682Z,4.93
2022-10-26T04:13:13.458Z,5.67
2022-10-26T04:14:46.221Z,5.03
2022-10-26T04:16:18.969Z,5.70
2022-10-26T04:17:56.465Z,5.80
2022-10-26T04:19:29.195Z,6.13
2022-10-26T04:21:02.719Z,6.27
2022-10-26T04:22:36.409Z,6.17
2022-10-26T04:24:11.557Z,6.03
2022-10-26T04:25:44.868Z,5.83
2022-10-26T04:27:16.632Z,5.90
2022-10-26T04:28:49.362Z,5.60
2022-10-26T04:30:22.136Z,5.83
2022-10-26T04:31:54.855Z,6.03
2022-10-26T04:33:27.585Z,6.40
2022-10-26T04:35:00.305Z,6.50
2022-10-26T04:36:33.050Z,5.93
2022-10-26T04:38:07.525Z,5.80
2022-10-26T04:39:41.631Z,6.07
2022-10-26T04:41:14.329Z,6.40
2022-10-26T04:42:47.821Z,6.20
2022-10-26T04:44:21.039Z,6.23
2022-10-26T04:45:56.344Z,6.50
2022-10-26T04:47:29.057Z,6.27
2022-10-26T04:49:01.784Z,6.20
2022-10-26T04:50:35.217Z,5.90
2022-10-26T04:52:07.936Z,5.73
2022-10-26T04:53:40.686Z,6.07
2022-10-26T04:55:14.744Z,5.63
2022-10-26T04:56:47.463Z,6.00
2022-10-26T04:58:20.229Z,5.70
2022-10-26T04:59:52.952Z,6.27
2022-10-26T05:01:25.852Z,6.20
2022-10-26T05:03:00.849Z,6.30
2022-10-26T05:04:33.563Z,6.03
2022-10-26T05:06:06.621Z,6.37
2022-10-26T05:07:39.367Z,5.63
2022-10-26T05:09:12.068Z,6.10
2022-10-26T05:10:49.485Z,6.23
2022-10-26T05:12:22.201Z,6.10
2022-10-26T05:13:54.920Z,6.23
2022-10-26T05:15:28.290Z,6.43
2022-10-26T05:17:01.016Z,6.23
2022-10-26T05:18:33.799Z,6.03
2022-10-26T05:20:10.794Z,6.43
2022-10-26T05:23:18.735Z,6.03
2022-10-26T05:24:51.568Z,5.83
2022-10-26T05:26:26.239Z,5.70
2022-10-26T05:27:59.856Z,6.30
2022-10-26T05:29:32.592Z,6.83
2022-10-26T05:31:05.650Z,6.20
2022-10-26T05:32:38.384Z,5.73
2022-10-26T05:34:11.108Z,5.90
2022-10-26T05:35:43.994Z,6.13
2022-10-26T05:37:16.718Z,5.97
2022-10-26T05:38:49.610Z,5.27
2022-10-26T05:40:22.635Z,5.90
2022-10-26T05:41:56.684Z,5.80
2022-10-26T05:43:30.226Z,5.73
2022-10-26T05:45:02.937Z,5.57
2022-10-26T05:46:35.688Z,5.67
2022-10-26T05:48:09.050Z,6.30
2022-10-26T05:49:41.785Z,6.30
2022-10-26T05:51:14.660Z,6.07
2022-10-26T05:52:48.744Z,6.63
2022-10-26T05:54:21.692Z,6.33
2022-10-26T05:55:55.861Z,6.20
2022-10-26T05:57:30.509Z,6.20
2022-10-26T05:59:03.882Z,6.83
2022-10-26T06:00:37.888Z,5.50
2022-10-26T06:02:20.474Z,6.27
2022-10-26T06:04:07.687Z,6.60
2022-10-26T06:05:53.808Z,6.13
2022-10-26T06:07:26.992Z,6.20
2022-10-26T06:09:00.250Z,7.33
2022-10-26T06:10:34.101Z,7.70
2022-10-26T06:12:08.384Z,6.50
2022-10-26T06:13:42.977Z,5.27
2022-10-26T06:15:19.956Z,6.00
2022-10-26T06:17:07.667Z,5.23
2022-10-26T06:18:48.166Z,5.50
2022-10-26T06:20:34.850Z,6.23
2022-10-26T06:22:19.033Z,5.93
2022-10-26T06:23:57.010Z,5.87
2022-10-26T06:25:43.853Z,6.27
2022-10-26T06:27:27.457Z,6.47
2022-10-26T06:29:11.052Z,6.57
2022-10-26T06:30:43.863Z,6.70
2022-10-26T06:32:17.185Z,6.27
2022-10-26T06:33:50.116Z,6.13
2022-10-26T06:35:29.915Z,6.00
2022-10-26T06:37:03.303Z,4.83
2022-10-26T06:38:37.738Z,5.57
2022-10-26T06:40:12.603Z,5.50
2022-10-26T06:41:45.873Z,5.20
2022-10-26T06:43:24.921Z,5.73
2022-10-26T06:44:59.737Z,5.27
2022-10-26T06:46:39.076Z,5.30
2022-10-26T06:48:17.572Z,5.43
2022-10-26T06:49:59.231Z,4.93
2022-10-26T06:51:34.391Z,5.10
2022-10-26T06:53:19.981Z,5.60
2022-10-26T06:54:54.589Z,5.53
2022-10-26T06:56:28.118Z,4.73
2022-10-26T06:58:01.004Z,5.20
2022-10-26T06:59:39.044Z,5.00
2022-10-26T07:01:14.094Z,5.40
2022-10-26T07:02:47.413Z,5.00
2022-10-26T07:04:20.594Z,5.17
2022-10-26T07:05:53.450Z,5.10
2022-10-26T07:07:27.806Z,4.83
2022-10-26T07:09:00.537Z,5.33
2022-10-26T07:10:35.047Z,5.40
2022-10-26T07:12:08.252Z,4.77
2022-10-26T07:13:40.993Z,4.57
2022-10-26T07:15:13.814Z,5.00
2022-10-26T07:16:47.888Z,5.83
2022-10-26T07:18:20.601Z,6.10
2022-10-26T07:19:53.322Z,6.00
2022-10-26T07:21:26.042Z,7.27
2022-10-26T07:22:59.221Z,7.33
2022-10-26T07:24:32.593Z,7.80
2022-10-26T07:26:05.396Z,7.47
2022-10-26T07:27:38.104Z,5.63
2022-10-26T07:29:10.815Z,5.47
2022-10-26T07:30:43.556Z,5.53
2022-10-26T07:32:17.660Z,5.07
2022-10-26T07:33:50.908Z,5.50
2022-10-26T07:35:23.642Z,5.63
2022-10-26T07:36:56.344Z,4.83
2022-10-26T07:38:29.065Z,5.20
2022-10-26T07:40:05.671Z,5.33
2022-10-26T07:41:39.625Z,4.90
2022-10-26T07:43:12.358Z,5.30
2022-10-26T07:44:45.043Z,5.07
2022-10-26T07:46:18.259Z,4.93
2022-10-26T07:47:52.340Z,4.63
2022-10-26T07:49:27.625Z,5.00
2022-10-26T07:51:03.175Z,4.90
2022-10-26T07:52:36.933Z,5.70
2022-10-26T07:54:09.825Z,4.60
2022-10-26T07:55:42.572Z,5.07
2022-10-26T07:57:17.104Z,5.20
2022-10-26T07:58:49.835Z,4.80
2022-10-26T08:00:23.238Z,5.20
2022-10-26T08:01:56.078Z,5.07
2022-10-26T08:03:30.147Z,4.97
2022-10-26T08:05:02.869Z,6.00
2022-10-26T08:06:35.792Z,6.03
2022-10-26T08:08:08.505Z,6.67
2022-10-26T08:09:41.240Z,6.17
2022-10-26T08:11:14.657Z,6.30
2022-10-26T08:12:47.386Z,6.80
2022-10-26T08:14:20.085Z,6.27
2022-10-26T08:15:57.926Z,6.43
2022-10-26T08:17:30.870Z,6.60
2022-10-26T08:19:04.927Z,5.97
2022-10-26T08:20:37.744Z,5.20
2022-10-26T08:22:10.554Z,5.50
2022-10-26T08:23:43.361Z,4.90
2022-10-26T08:25:18.928Z,5.27
2022-10-26T08:26:54.196Z,5.00
2022-10-26T08:28:26.937Z,4.70
2022-10-26T08:29:59.660Z,5.37
2022-10-26T08:31:32.387Z,5.40
2022-10-26T08:33:07.420Z,5.10
2022-10-26T08:34:41.477Z,5.97
2022-10-26T08:36:19.771Z,4.80
2022-10-26T08:37:53.498Z,5.30
2022-10-26T08:39:28.415Z,5.40
2022-10-26T08:41:07.934Z,4.83
2022-10-26T08:42:46.352Z,4.83
2022-10-26T08:44:25.984Z,4.83
2022-10-26T08:46:04.082Z,4.87
2022-10-26T08:47:44.741Z,5.10
2022-10-26T08:49:24.275Z,5.00
2022-10-26T08:51:03.585Z,4.63
2022-10-26T08:52:44.806Z,5.37
2022-10-26T08:54:23.948Z,4.90
2022-10-26T08:56:02.697Z,4.93
2022-10-26T08:57:39.135Z,4.43
2022-10-26T08:59:19.386Z,4.13
2022-10-26T09:00:52.698Z,4.13
2022-10-26T09:02:25.784Z,4.07
2022-10-26T09:03:59.330Z,3.90
2022-10-26T09:05:39.664Z,3.87
2022-10-26T09:07:37.306Z,3.77
2022-10-26T09:09:16.706Z,3.77
2022-10-26T09:10:59.779Z,3.80
2022-10-26T09:12:42.120Z,4.23
2022-10-26T09:14:19.414Z,4.17
2022-10-26T09:16:03.376Z,3.87
2022-10-26T09:17:45.085Z,3.83
2022-10-26T09:19:43.182Z,4.60
2022-10-26T09:21:27.674Z,6.67
2022-10-26T09:23:07.628Z,4.23
2022-10-26T09:24:45.967Z,4.70
2022-10-26T09:26:29.842Z,4.73
2022-10-26T09:28:03.224Z,4.30
2022-10-26T09:29:41.967Z,4.17
2022-10-26T09:31:18.038Z,4.63
2022-10-26T09:32:53.238Z,3.90
2022-10-26T09:34:32.466Z,4.40
2022-10-26T09:36:11.819Z,4.63
2022-10-26T09:37:51.782Z,4.43
2022-10-26T09:39:41.524Z,3.87
2022-10-26T09:41:28.223Z,4.53
2022-10-26T09:43:11.770Z,4.20
2022-10-26T09:44:51.482Z,3.60
2022-10-26T09:46:30.268Z,4.00
2022-10-26T09:48:12.280Z,3.90
2022-10-26T09:49:48.878Z,3.97
2022-10-26T09:51:23.375Z,3.87
2022-10-26T09:52:56.204Z,3.57
2022-10-26T09:54:28.941Z,3.70
2022-10-26T09:56:08.215Z,3.63
2022-10-26T09:57:42.836Z,3.70
2022-10-26T09:59:17.914Z,3.43
2022-10-26T10:00:51.911Z,3.60
2022-10-26T10:02:40.100Z,3.70
2022-10-26T10:04:22.496Z,3.20
2022-10-26T10:06:14.662Z,3.40
2022-10-26T10:07:47.400Z,3.33
2022-10-26T10:09:21.909Z,3.43
2022-10-26T10:10:57.122Z,3.70
2022-10-26T10:12:31.240Z,3.43
2022-10-26T10:14:09.018Z,3.67
2022-10-26T10:15:41.804Z,4.07
2022-10-26T10:17:21.941Z,3.57
2022-10-26T10:18:56.200Z,3.67
2022-10-26T10:20:32.426Z,3.40
2022-10-26T10:22:12.386Z,3.57
2022-10-26T10:23:51.910Z,3.33
2022-10-26T10:25:34.693Z,3.60
2022-10-26T10:27:18.448Z,3.30
2022-10-26T10:29:00.832Z,3.40
2022-10-26T10:30:35.010Z,3.43
2022-10-26T10:32:15.717Z,3.13
2022-10-26T10:33:49.283Z,3.60
2022-10-26T10:35:25.261Z,3.10
2022-10-26T10:36:59.257Z,3.50
2022-10-26T10:38:38.900Z,3.30
2022-10-26T10:40:20.642Z,2.90
2022-10-26T10:41:53.862Z,3.40
2022-10-26T10:43:28.050Z,3.40
2022-10-26T10:45:03.416Z,3.07
2022-10-26T10:46:37.526Z,3.30
2022-10-26T10:48:17.360Z,3.03
2022-10-26T10:49:55.628Z,3.37
2022-10-26T10:51:28.743Z,3.33
2022-10-26T10:53:19.280Z,3.20
2022-10-26T10:55:00.900Z,3.00
2022-10-26T10:56:41.285Z,3.43
2022-10-26T10:58:21.006Z,2.97
2022-10-26T11:00:03.724Z,3.23
2022-10-26T11:01:41.471Z,2.97
2022-10-26T11:03:33.778Z,3.50
2022-10-26T11:05:26.372Z,3.17
2022-10-26T11:07:02.411Z,3.10
2022-10-26T11:08:41.045Z,3.50
2022-10-26T11:10:18.626Z,3.47
2022-10-26T11:11:55.711Z,3.23
2022-10-26T11:13:34.581Z,3.20
2022-10-26T11:15:15.092Z,3.13
2022-10-26T11:16:52.568Z,2.90
2022-10-26T11:18:31.352Z,3.23
2022-10-26T11:20:10.050Z,3.00
2022-10-26T11:21:48.040Z,3.17
2022-10-26T11:23:25.112Z,3.57
2022-10-26T11:25:01.776Z,3.00
2022-10-26T11:26:42.413Z,3.00
2022-10-26T11:28:23.974Z,3.00
2022-10-26T11:30:03.185Z,3.10
2022-10-26T11:31:43.153Z,3.13
2022-10-26T11:33:20.421Z,3.10
2022-10-26T11:34:59.610Z,3.10
2022-10-26T11:36:35.444Z,3.27
2022-10-26T11:38:18.137Z,2.70
2022-10-26T11:40:03.988Z,2.87
2022-10-26T11:41:41.829Z,3.00
2022-10-26T11:43:19.591Z,2.80
2022-10-26T11:44:58.160Z,2.77
2022-10-26T11:46:35.398Z,2.80
2022-10-26T11:48:16.727Z,2.70
2022-10-26T11:49:54.750Z,3.00
2022-10-26T11:51:39.865Z,3.20
2022-10-26T11:53:16.676Z,2.80
2022-10-26T11:54:54.475Z,2.90
2022-10-26T11:56:32.672Z,2.87
2022-10-26T11:58:06.283Z,2.77
2022-10-26T11:59:43.834Z,2.80
2022-10-26T12:01:18.238Z,2.70
2022-10-26T12:02:57.661Z,2.20
2022-10-26T12:04:35.998Z,2.73
2022-10-26T12:06:08.818Z,2.40
2022-10-26T12:07:45.420Z,2.87
2022-10-26T12:09:21.327Z,2.37
2022-10-26T12:12:49.558Z,2.47
2022-10-26T12:14:27.151Z,2.60
2022-10-26T12:16:07.800Z,2.53
2022-10-26T12:17:49.680Z,2.53
2022-10-26T12:21:09.462Z,2.20
2022-10-26T12:22:43.640Z,2.33
2022-10-26T12:24:35.033Z,2.40
2022-10-26T12:26:49.676Z,2.00
2022-10-26T12:28:42.156Z,2.47
2022-10-26T12:30:24.129Z,2.03
2022-10-26T12:31:57.145Z,2.10
2022-10-26T12:33:31.266Z,2.37
2022-10-26T12:35:25.679Z,2.10
2022-10-26T12:37:30.306Z,2.10
2022-10-26T12:39:03.077Z,2.10
2022-10-26T12:40:44.771Z,2.10
2022-10-26T12:42:31.012Z,2.20
2022-10-26T12:44:31.526Z,1.90
2022-10-26T12:46:41.115Z,2.17
2022-10-26T12:48:38.809Z,2.27
2022-10-26T12:50:25.014Z,1.97
2022-10-26T12:51:59.077Z,1.87
2022-10-26T12:53:43.955Z,1.57
2022-10-26T12:55:54.987Z,2.37
2022-10-26T12:57:37.013Z,1.90
2022-10-26T12:59:25.500Z,2.00
2022-10-26T13:01:40.082Z,2.07
2022-10-26T13:03:27.770Z,1.73
2022-10-26T13:05:33.347Z,1.90
2022-10-26T13:07:18.676Z,1.83
2022-10-26T13:08:58.601Z,2.17
2022-10-26T13:10:33.963Z,1.97
2022-10-26T13:12:06.981Z,1.70
2022-10-26T13:13:42.346Z,1.90
2022-10-26T13:15:23.124Z,1.80
2022-10-26T13:16:56.472Z,1.90
2022-10-26T13:18:30.139Z,1.70
2022-10-26T13:20:05.676Z,1.70
2022-10-26T13:21:48.245Z,1.70
2022-10-26T13:23:26.557Z,2.00
2022-10-26T13:25:03.066Z,1.70
2022-10-26T13:27:13.662Z,1.60
2022-10-26T13:28:50.295Z,1.67
2022-10-26T13:30:44.357Z,1.70
2022-10-26T13:32:17.567Z,1.77
2022-10-26T13:33:53.581Z,1.87
2022-10-26T13:35:27.060Z,1.90
2022-10-26T13:37:08.000Z,1.70
2022-10-26T13:38:40.992Z,1.73
2022-10-26T13:40:19.197Z,1.93
2022-10-26T13:41:54.729Z,1.90
2022-10-26T13:43:29.319Z,1.73
2022-10-26T13:45:06.605Z,1.70
2022-10-26T13:46:42.255Z,2.00
2022-10-26T13:48:19.858Z,2.00
2022-10-26T13:49:57.676Z,1.80
2022-10-26T13:51:40.922Z,1.83
2022-10-26T13:53:19.138Z,1.70
2022-10-26T13:54:57.162Z,1.70
2022-10-26T13:56:34.682Z,1.80
2022-10-26T13:58:18.792Z,2.13
2022-10-26T13:59:52.367Z,2.17
2022-10-26T14:01:26.961Z,2.00
2022-10-26T14:02:59.753Z,2.17
2022-10-26T14:04:32.452Z,2.00
2022-10-26T14:06:06.689Z,1.73
2022-10-26T14:07:44.138Z,1.90
2022-10-26T14:09:18.554Z,2.00
2022-10-26T14:10:56.125Z,1.70
2022-10-26T14:12:30.640Z,1.73
2022-10-26T14:14:04.756Z,2.00
2022-10-26T14:15:38.044Z,2.10
2022-10-26T14:17:20.332Z,1.80
2022-10-26T14:18:53.142Z,2.00
2022-10-26T14:20:28.745Z,2.13
2022-10-26T14:22:02.555Z,1.60
2022-10-26T14:23:37.020Z,2.00
2022-10-26T14:25:26.721Z,1.80
2022-10-26T14:27:16.573Z,1.77
2022-10-26T14:28:52.872Z,2.10
2022-10-26T14:30:28.687Z,2.07
2022-10-26T14:32:01.408Z,1.83
2022-10-26T14:33:34.142Z,2.10
2022-10-26T14:35:11.980Z,1.90
2022-10-26T14:36:47.466Z,1.83
2022-10-26T14:38:23.344Z,1.93
2022-10-26T14:39:56.187Z,2.17
2022-10-26T14:41:30.103Z,2.17
2022-10-26T14:43:05.150Z,2.00
2022-10-26T14:44:39.352Z,2.00
2022-10-26T14:46:15.675Z,1.77
2022-10-26T14:47:50.569Z,1.80
2022-10-26T14:49:25.793Z,1.60
2022-10-26T14:51:03.731Z,1.80
2022-10-26T14:52:37.990Z,1.80
2022-10-26T14:54:21.661Z,1.40
2022-10-26T14:55:54.436Z,1.60
2022-10-26T14:57:38.431Z,1.37
2022-10-26T14:59:13.101Z,1.67
2022-10-26T15:00:48.824Z,1.37
2022-10-26T15:02:24.438Z,1.40
2022-10-26T15:03:59.751Z,1.60
2022-10-26T15:05:36.173Z,1.43
2022-10-26T15:07:16.149Z,1.40
2022-10-26T15:08:56.967Z,1.53
2022-10-26T15:10:49.327Z,1.60
2022-10-26T15:12:29.297Z,1.50
2022-10-26T15:14:03.396Z,1.43
2022-10-26T15:15:38.957Z,1.40
2022-10-26T15:17:21.858Z,1.50
2022-10-26T15:18:58.176Z,1.50
2022-10-26T15:20:33.193Z,1.50
2022-10-26T15:22:05.985Z,1.50
2022-10-26T15:23:43.294Z,1.43
2022-10-26T15:25:20.637Z,1.50
2022-10-26T15:26:52.774Z,1.37
2022-10-26T15:28:30.372Z,1.50
2022-10-26T15:30:25.033Z,1.70
2022-10-26T15:32:01.434Z,1.70
2022-10-26T15:33:36.135Z,1.90
2022-10-26T15:35:25.099Z,2.00
2022-10-26T15:36:57.945Z,2.03
2022-10-26T15:38:32.073Z,2.10
2022-10-26T15:40:05.818Z,1.80
2022-10-26T15:41:45.233Z,1.90
2022-10-26T15:43:18.021Z,1.63
2022-10-26T15:44:53.300Z,2.07
2022-10-26T15:46:29.984Z,2.00
2022-10-26T15:48:19.263Z,1.90
2022-10-26T15:49:53.329Z,1.70
2022-10-26T15:51:26.477Z,2.00
2022-10-26T15:53:02.287Z,1.90
2022-10-26T15:54:35.200Z,2.00
2022-10-26T15:56:15.940Z,1.90
2022-10-26T15:57:49.086Z,1.87
2022-10-26T15:59:22.087Z,1.80
2022-10-26T16:00:54.963Z,1.90
2022-10-26T16:02:28.855Z,1.70
2022-10-26T16:04:01.589Z,1.90
2022-10-26T16:05:36.656Z,1.70
2022-10-26T16:07:14.498Z,2.17
2022-10-26T16:08:50.818Z,2.20
2022-10-26T16:10:25.352Z,2.00
2022-10-26T16:11:58.155Z,1.80
2022-10-26T16:13:30.924Z,1.90
2022-10-26T16:15:05.897Z,2.17
2022-10-26T16:16:39.759Z,1.77
2022-10-26T16:18:12.507Z,2.03
2022-10-26T16:19:45.718Z,1.80
2022-10-26T16:21:21.558Z,1.70
2022-10-26T16:22:55.161Z,1.60
2022-10-26T16:24:29.097Z,1.80
2022-10-26T16:26:01.799Z,1.73
2022-10-26T16:27:34.550Z,1.90
2022-10-26T16:29:07.317Z,1.70
2022-10-26T16:32:13.850Z,1.93
2022-10-26T16:33:46.637Z,1.97
2022-10-26T16:35:19.497Z,1.97
2022-10-26T16:36:53.585Z,2.23
2022-10-26T16:38:27.409Z,1.93
2022-10-26T16:40:00.225Z,2.00
2022-10-26T16:41:34.036Z,2.20
2022-10-26T16:43:06.734Z,2.10
2022-10-26T16:44:39.589Z,2.00
2022-10-26T16:46:14.504Z,2.10
2022-10-26T16:47:47.484Z,1.93
2022-10-26T16:49:20.337Z,2.20
2022-10-26T16:50:53.156Z,2.30
2022-10-26T16:52:27.200Z,2.10
2022-10-26T16:53:59.958Z,2.17
2022-10-26T16:55:32.800Z,1.77
2022-10-26T16:57:05.961Z,1.67
2022-10-26T16:58:39.116Z,1.90
2022-10-26T17:00:12.386Z,2.20
2022-10-26T17:01:45.728Z,1.93
2022-10-26T17:03:18.826Z,1.97
2022-10-26T17:04:51.566Z,1.97
2022-10-26T17:06:24.328Z,2.30
2022-10-26T17:07:58.396Z,1.80
2022-10-26T17:09:31.115Z,1.80
2022-10-26T17:11:05.563Z,1.90
2022-10-26T17:12:38.294Z,2.10
2022-10-26T17:14:10.992Z,1.90
2022-10-26T17:15:43.808Z,1.97
2022-10-26T17:17:16.560Z,2.10
2022-10-26T17:18:49.733Z,2.03
2022-10-26T17:20:22.434Z,1.80
2022-10-26T17:21:55.156Z,1.80
2022-10-26T17:23:29.284Z,2.80
2022-10-26T17:25:02.014Z,2.63
2022-10-26T17:26:34.734Z,2.63
2022-10-26T17:28:07.451Z,2.20
2022-10-26T17:29:40.201Z,1.80
2022-10-26T17:31:14.836Z,1.90
2022-10-26T17:32:47.804Z,1.90
2022-10-26T17:34:20.741Z,2.03
2022-10-26T17:35:54.423Z,2.00
2022-10-26T17:37:27.251Z,2.00
2022-10-26T17:39:01.709Z,2.17
2022-10-26T17:40:34.633Z,2.10
2022-10-26T17:42:07.392Z,1.90
2022-10-26T17:43:42.322Z,2.23
2022-10-26T17:45:15.098Z,2.20
2022-10-26T17:46:47.821Z,2.20
2022-10-26T17:48:20.562Z,2.30
2022-10-26T17:49:53.291Z,2.30
2022-10-26T17:51:27.465Z,1.97
2022-10-26T17:53:00.417Z,1.80
2022-10-26T17:54:34.521Z,1.90
2022-10-26T17:56:10.875Z,2.13
2022-10-26T17:57:46.676Z,2.23
2022-10-26T17:59:19.951Z,2.13
2022-10-26T18:00:52.705Z,2.30
2022-10-26T18:02:25.531Z,2.20
2022-10-26T18:03:58.854Z,2.10
2022-10-26T18:05:32.202Z,2.10
2022-10-26T18:07:04.953Z,2.17
2022-10-26T18:08:38.960Z,2.20
2022-10-26T18:10:33.117Z,2.17
2022-10-26T18:12:06.326Z,2.27
2022-10-26T18:13:39.682Z,2.20
2022-10-26T18:15:12.391Z,2.30
2022-10-26T18:16:45.088Z,2.20
2022-10-26T18:18:17.803Z,2.10
2022-10-26T18:19:50.668Z,2.00
2022-10-26T18:21:23.398Z,2.13
2022-10-26T18:22:56.583Z,2.10
2022-10-26T18:24:29.807Z,2.10
2022-10-26T18:26:11.127Z,2.20
2022-10-26T18:27:45.872Z,2.10
2022-10-26T18:29:18.754Z,2.57
2022-10-26T18:30:50.498Z,2.17
2022-10-26T18:32:23.231Z,2.43
2022-10-26T18:33:57.296Z,2.23
2022-10-26T18:35:30.018Z,2.20
2022-10-26T18:37:02.774Z,2.17
2022-10-26T18:38:36.021Z,2.10
2022-10-26T18:40:09.984Z,2.40
2022-10-26T18:41:44.180Z,2.30
2022-10-26T18:43:16.883Z,2.10
2022-10-26T18:44:49.627Z,2.40
2022-10-26T18:46:24.442Z,2.50
2022-10-26T18:47:57.193Z,2.07
2022-10-26T18:49:29.922Z,2.43
2022-10-26T18:51:06.704Z,2.40
2022-10-26T18:52:39.913Z,2.50
2022-10-26T18:54:12.786Z,2.37
2022-10-26T18:55:45.481Z,2.60
2022-10-26T18:57:21.349Z,2.17
2022-10-26T18:58:58.257Z,2.37
2022-10-26T19:00:31.129Z,2.30
2022-10-26T19:02:04.053Z,2.13
2022-10-26T19:03:37.490Z,2.40
2022-10-26T19:05:10.427Z,2.30
2022-10-26T19:06:47.203Z,2.30
2022-10-26T19:08:19.965Z,2.20
2022-10-26T19:09:52.673Z,2.63
2022-10-26T19:11:26.903Z,2.67
2022-10-26T19:13:05.578Z,2.30
2022-10-26T19:14:38.315Z,2.40
2022-10-26T19:16:17.346Z,2.30
2022-10-26T19:17:59.683Z,2.37
2022-10-26T19:19:32.449Z,2.00
2022-10-26T19:21:07.147Z,2.03
2022-10-26T19:22:40.138Z,2.30
2022-10-26T19:24:14.606Z,2.03
2022-10-26T19:25:47.315Z,2.20
2022-10-26T19:27:20.061Z,2.00
2022-10-26T19:28:57.344Z,1.90
2022-10-26T19:30:30.085Z,2.30
2022-10-26T19:32:02.823Z,2.60
2022-10-26T19:33:36.057Z,1.97
2022-10-26T19:35:09.501Z,2.20
2022-10-26T19:36:44.927Z,2.40
2022-10-26T19:38:18.329Z,2.40
2022-10-26T19:39:51.426Z,2.13
2022-10-26T19:41:26.600Z,2.07
2022-10-26T19:42:59.309Z,2.50
2022-10-26T19:44:33.386Z,2.50
2022-10-26T19:46:08.278Z,3.00
2022-10-26T19:47:40.987Z,3.00
2022-10-26T19:49:13.775Z,2.90
2022-10-26T19:50:48.969Z,2.70
2022-10-26T19:52:21.674Z,2.90
2022-10-26T19:53:57.820Z,2.40
2022-10-26T19:55:33.325Z,3.30
2022-10-26T19:57:06.038Z,2.50
2022-10-26T19:58:38.769Z,3.10
2022-10-26T20:00:16.213Z,3.07
2022-10-26T20:01:48.980Z,3.23
2022-10-26T20:03:21.813Z,3.10
2022-10-26T20:04:54.596Z,2.80
2022-10-26T20:06:27.354Z,2.70
2022-10-26T20:08:00.231Z,2.60
2022-10-26T20:09:32.991Z,2.63
2022-10-26T20:11:09.045Z,2.70
2022-10-26T20:12:44.377Z,2.80
2022-10-26T20:14:17.243Z,2.87
2022-10-26T20:15:52.204Z,2.53
2022-10-26T20:17:28.304Z,2.30
2022-10-26T20:19:01.617Z,2.40
2022-10-26T20:20:37.861Z,2.80
2022-10-26T20:22:10.605Z,2.40
2022-10-26T20:23:44.005Z,2.70
2022-10-26T20:25:16.966Z,2.60
2022-10-26T20:26:49.684Z,3.03
2022-10-26T20:28:21.536Z,2.70
2022-10-26T20:29:54.253Z,3.03
2022-10-26T20:31:28.288Z,2.60
2022-10-26T20:33:01.067Z,3.07
2022-10-26T20:34:33.800Z,2.80
2022-10-26T20:36:07.073Z,2.53
2022-10-26T20:37:40.249Z,2.30
2022-10-26T20:39:13.658Z,2.60
2022-10-26T20:40:53.330Z,2.50
2022-10-26T20:42:28.170Z,3.07
2022-10-26T20:44:02.032Z,3.03
2022-10-26T20:45:35.426Z,2.70
2022-10-26T20:47:10.599Z,2.90
2022-10-26T20:48:43.859Z,2.57
2022-10-26T20:50:17.346Z,2.70
2022-10-26T20:52:15.712Z,2.73
2022-10-26T20:53:55.913Z,2.80
2022-10-26T20:55:37.050Z,2.87
2022-10-26T20:57:16.655Z,2.50
2022-10-26T20:58:52.700Z,3.13
2022-10-26T21:00:26.089Z,2.67
2022-10-26T21:01:58.885Z,2.73
2022-10-26T21:03:32.985Z,2.93
2022-10-26T21:05:06.733Z,3.07
2022-10-26T21:06:40.700Z,2.63
2022-10-26T21:08:13.498Z,2.93
2022-10-26T21:09:46.217Z,2.77
2022-10-26T21:11:19.778Z,3.77
2022-10-26T21:12:52.957Z,2.83
2022-10-26T21:14:26.010Z,3.67
2022-10-26T21:15:58.773Z,2.93
2022-10-26T21:17:34.291Z,3.57
2022-10-26T21:19:08.363Z,3.20
2022-10-26T21:20:41.091Z,3.07
2022-10-26T21:22:13.813Z,3.00
2022-10-26T21:23:46.518Z,3.10
2022-10-26T21:25:19.306Z,3.37
2022-10-26T21:26:52.272Z,3.33
2022-10-26T21:28:25.097Z,3.00
2022-10-26T21:29:57.823Z,2.90
2022-10-26T21:31:30.906Z,2.77
2022-10-26T21:33:03.607Z,2.50
2022-10-26T21:34:37.658Z,2.70